sensor_id;sensor_type;location;lat;lon;timestamp;pressure;altitude;pressure_sealevel;temperature;humidity
46768;BME280;69007;48.978;18.066;2024-02-21T00:00:08;98308.66;;;5.24;100.00
46768;BME280;69007;48.978;18.066;2024-02-21T00:02:34;98300.81;;;5.15;100.00
46768;BME280;69007;48.978;18.066;2024-02-21T00:04:59;98287.97;;;5.11;100.00
46768;BME280;69007;48.978;18.066;2024-02-21T00:07:24;98290.19;;;5.21;100.00
46768;BME280;69007;48.978;18.066;2024-02-21T00:09:50;98301.56;;;5.29;100.00
46768;BME280;69007;48.978;18.066;2024-02-21T00:12:15;98302.84;;;5.27;100.00
46768;BME280;69007;48.978;18.066;2024-02-21T00:14:41;98285.56;;;5.34;100.00
46768;BME280;69007;48.978;18.066;2024-02-21T00:17:06;98284.16;;;5.25;100.00
46768;BME280;69007;48.978;18.066;2024-02-21T00:19:33;98275.88;;;5.20;100.00
46768;BME280;69007;48.978;18.066;2024-02-21T00:21:58;98293.94;;;5.26;100.00
46768;BME280;69007;48.978;18.066;2024-02-21T00:24:24;98291.88;;;5.22;100.00
46768;BME280;69007;48.978;18.066;2024-02-21T00:26:49;98276.91;;;5.19;100.00
46768;BME280;69007;48.978;18.066;2024-02-21T00:29:15;98278.78;;;5.25;100.00
46768;BME280;69007;48.978;18.066;2024-02-21T00:31:40;98294.13;;;5.25;100.00
46768;BME280;69007;48.978;18.066;2024-02-21T00:34:05;98301.78;;;5.28;100.00
46768;BME280;69007;48.978;18.066;2024-02-21T00:36:30;98258.63;;;5.21;100.00
46768;BME280;69007;48.978;18.066;2024-02-21T00:38:56;98279.16;;;5.29;100.00
46768;BME280;69007;48.978;18.066;2024-02-21T00:41:21;98248.31;;;5.18;100.00
46768;BME280;69007;48.978;18.066;2024-02-21T00:43:46;98267.97;;;5.25;100.00
46768;BME280;69007;48.978;18.066;2024-02-21T00:46:13;98271.22;;;5.41;100.00
46768;BME280;69007;48.978;18.066;2024-02-21T00:48:39;98264.56;;;5.43;100.00
46768;BME280;69007;48.978;18.066;2024-02-21T00:51:04;98268.25;;;5.49;100.00
46768;BME280;69007;48.978;18.066;2024-02-21T00:53:30;98262.84;;;5.49;100.00
46768;BME280;69007;48.978;18.066;2024-02-21T00:55:55;98258.69;;;5.53;100.00
46768;BME280;69007;48.978;18.066;2024-02-21T00:58:22;98278.00;;;5.50;100.00
46768;BME280;69007;48.978;18.066;2024-02-21T01:00:47;98268.25;;;5.49;100.00
46768;BME280;69007;48.978;18.066;2024-02-21T01:03:12;98241.31;;;5.42;100.00
46768;BME280;69007;48.978;18.066;2024-02-21T01:05:38;98251.66;;;5.45;100.00
46768;BME280;69007;48.978;18.066;2024-02-21T01:08:04;98250.81;;;5.51;100.00
46768;BME280;69007;48.978;18.066;2024-02-21T01:10:29;98242.31;;;5.48;100.00
46768;BME280;69007;48.978;18.066;2024-02-21T01:12:55;98241.25;;;5.49;100.00
46768;BME280;69007;48.978;18.066;2024-02-21T01:15:20;98214.19;;;5.30;100.00
46768;BME280;69007;48.978;18.066;2024-02-21T01:17:45;98241.25;;;5.49;100.00
46768;BME280;69007;48.978;18.066;2024-02-21T01:20:11;98236.91;;;5.48;100.00
46768;BME280;69007;48.978;18.066;2024-02-21T01:22:36;98217.22;;;5.41;100.00
46768;BME280;69007;48.978;18.066;2024-02-21T01:25:02;98215.13;;;5.43;100.00
46768;BME280;69007;48.978;18.066;2024-02-21T01:27:27;98206.94;;;5.24;100.00
46768;BME280;69007;48.978;18.066;2024-02-21T01:29:53;98226.84;;;5.30;100.00
46768;BME280;69007;48.978;18.066;2024-02-21T01:32:18;98219.59;;;5.30;100.00
46768;BME280;69007;48.978;18.066;2024-02-21T01:34:43;98232.81;;;5.39;100.00
46768;BME280;69007;48.978;18.066;2024-02-21T01:37:09;98215.38;;;5.34;100.00
46768;BME280;69007;48.978;18.066;2024-02-21T01:39:34;98233.59;;;5.46;100.00
46768;BME280;69007;48.978;18.066;2024-02-21T01:42:00;98228.38;;;5.51;100.00
46768;BME280;69007;48.978;18.066;2024-02-21T01:44:25;98225.72;;;5.44;100.00
46768;BME280;69007;48.978;18.066;2024-02-21T01:46:52;98239.63;;;5.48;100.00
46768;BME280;69007;48.978;18.066;2024-02-21T01:49:19;98227.25;;;5.33;100.00
46768;BME280;69007;48.978;18.066;2024-02-21T01:51:45;98194.69;;;5.28;100.00
46768;BME280;69007;48.978;18.066;2024-02-21T01:54:12;98219.72;;;5.42;100.00
46768;BME280;69007;48.978;18.066;2024-02-21T01:56:38;98215.59;;;5.40;100.00
46768;BME280;69007;48.978;18.066;2024-02-21T01:59:04;98207.56;;;5.26;100.00
46768;BME280;69007;48.978;18.066;2024-02-21T02:01:30;98192.94;;;5.09;100.00
46768;BME280;69007;48.978;18.066;2024-02-21T02:03:55;98226.00;;;5.29;100.00
46768;BME280;69007;48.978;18.066;2024-02-21T02:06:21;98223.47;;;5.34;100.00
46768;BME280;69007;48.978;18.066;2024-02-21T02:08:46;98213.09;;;5.38;100.00
46768;BME280;69007;48.978;18.066;2024-02-21T02:11:13;98228.81;;;5.48;100.00
46768;BME280;69007;48.978;18.066;2024-02-21T02:13:40;98224.63;;;5.52;100.00
46768;BME280;69007;48.978;18.066;2024-02-21T02:16:05;98223.16;;;5.56;100.00
46768;BME280;69007;48.978;18.066;2024-02-21T02:18:31;98215.44;;;5.60;100.00
46768;BME280;69007;48.978;18.066;2024-02-21T02:20:56;98213.00;;;5.51;100.00
46768;BME280;69007;48.978;18.066;2024-02-21T02:23:29;98204.25;;;5.56;100.00
46768;BME280;69007;48.978;18.066;2024-02-21T02:25:55;98204.25;;;5.56;100.00
46768;BME280;69007;48.978;18.066;2024-02-21T02:28:21;98197.69;;;5.45;100.00
46768;BME280;69007;48.978;18.066;2024-02-21T02:30:47;98204.97;;;5.45;100.00
46768;BME280;69007;48.978;18.066;2024-02-21T02:33:12;98205.56;;;5.47;100.00
46768;BME280;69007;48.978;18.066;2024-02-21T02:35:38;98195.38;;;5.49;100.00
46768;BME280;69007;48.978;18.066;2024-02-21T02:38:04;98199.72;;;5.50;100.00
46768;BME280;69007;48.978;18.066;2024-02-21T02:40:30;98175.28;;;5.45;100.00
46768;BME280;69007;48.978;18.066;2024-02-21T02:42:56;98196.53;;;5.60;100.00
46768;BME280;69007;48.978;18.066;2024-02-21T02:45:22;98176.91;;;5.46;100.00
46768;BME280;69007;48.978;18.066;2024-02-21T02:47:52;98172.41;;;5.40;100.00
46768;BME280;69007;48.978;18.066;2024-02-21T02:50:19;98207.22;;;5.48;100.00
46768;BME280;69007;48.978;18.066;2024-02-21T02:52:45;98202.91;;;5.40;100.00
46768;BME280;69007;48.978;18.066;2024-02-21T02:55:10;98204.19;;;5.31;100.00
46768;BME280;69007;48.978;18.066;2024-02-21T02:57:35;98202.75;;;5.35;100.00
46768;BME280;69007;48.978;18.066;2024-02-21T03:00:01;98185.16;;;5.26;100.00
46768;BME280;69007;48.978;18.066;2024-02-21T03:02:26;98190.66;;;5.38;100.00
46768;BME280;69007;48.978;18.066;2024-02-21T03:04:52;98179.28;;;5.35;100.00
46768;BME280;69007;48.978;18.066;2024-02-21T03:07:19;98179.69;;;5.32;100.00
46768;BME280;69007;48.978;18.066;2024-02-21T03:09:44;98180.72;;;5.38;100.00
46768;BME280;69007;48.978;18.066;2024-02-21T03:12:10;98186.97;;;5.32;100.00
46768;BME280;69007;48.978;18.066;2024-02-21T03:14:36;98192.13;;;5.40;100.00
46768;BME280;69007;48.978;18.066;2024-02-21T03:17:02;98192.94;;;5.41;100.00
46768;BME280;69007;48.978;18.066;2024-02-21T03:19:28;98194.97;;;5.45;100.00
46768;BME280;69007;48.978;18.066;2024-02-21T03:21:54;98201.63;;;5.43;100.00
46768;BME280;69007;48.978;18.066;2024-02-21T03:24:19;98192.50;;;5.44;100.00
46768;BME280;69007;48.978;18.066;2024-02-21T03:26:45;98198.00;;;5.30;100.00
46768;BME280;69007;48.978;18.066;2024-02-21T03:29:15;98172.50;;;5.26;100.00
46768;BME280;69007;48.978;18.066;2024-02-21T03:31:41;98199.19;;;5.34;100.00
46768;BME280;69007;48.978;18.066;2024-02-21T03:34:06;98189.50;;;5.27;100.00
46768;BME280;69007;48.978;18.066;2024-02-21T03:36:32;98156.38;;;5.13;100.00
46768;BME280;69007;48.978;18.066;2024-02-21T03:38:57;98178.16;;;5.18;100.00
46768;BME280;69007;48.978;18.066;2024-02-21T03:41:22;98180.44;;;5.14;100.00
46768;BME280;69007;48.978;18.066;2024-02-21T03:43:48;98172.56;;;5.13;100.00
46768;BME280;69007;48.978;18.066;2024-02-21T03:46:14;98158.50;;;5.04;100.00
46768;BME280;69007;48.978;18.066;2024-02-21T03:48:39;98170.91;;;5.12;100.00
46768;BME280;69007;48.978;18.066;2024-02-21T03:51:05;98153.16;;;4.97;100.00
46768;BME280;69007;48.978;18.066;2024-02-21T03:53:30;98157.72;;;4.97;100.00
46768;BME280;69007;48.978;18.066;2024-02-21T03:55:56;98175.72;;;5.03;100.00
46768;BME280;69007;48.978;18.066;2024-02-21T03:58:22;98156.28;;;4.94;100.00
46768;BME280;69007;48.978;18.066;2024-02-21T04:00:47;98139.16;;;4.82;100.00
46768;BME280;69007;48.978;18.066;2024-02-21T04:03:13;98175.97;;;4.95;100.00
46768;BME280;69007;48.978;18.066;2024-02-21T04:05:38;98175.16;;;4.94;100.00
46768;BME280;69007;48.978;18.066;2024-02-21T04:08:07;98169.06;;;4.74;100.00
46768;BME280;69007;48.978;18.066;2024-02-21T04:10:33;98196.22;;;4.72;100.00
46768;BME280;69007;48.978;18.066;2024-02-21T04:12:58;98182.34;;;4.69;100.00
46768;BME280;69007;48.978;18.066;2024-02-21T04:15:24;98179.41;;;4.77;100.00
46768;BME280;69007;48.978;18.066;2024-02-21T04:17:49;98171.50;;;4.82;100.00
46768;BME280;69007;48.978;18.066;2024-02-21T04:20:16;98157.88;;;4.64;100.00
46768;BME280;69007;48.978;18.066;2024-02-21T04:22:46;98150.69;;;4.51;100.00
46768;BME280;69007;48.978;18.066;2024-02-21T04:25:11;98158.16;;;4.55;100.00
46768;BME280;69007;48.978;18.066;2024-02-21T04:27:38;98171.16;;;4.65;100.00
46768;BME280;69007;48.978;18.066;2024-02-21T04:30:04;98165.31;;;4.68;100.00
46768;BME280;69007;48.978;18.066;2024-02-21T04:32:29;98171.53;;;4.75;100.00
46768;BME280;69007;48.978;18.066;2024-02-21T04:34:55;98151.66;;;4.63;100.00
46768;BME280;69007;48.978;18.066;2024-02-21T04:37:20;98178.34;;;4.78;100.00
46768;BME280;69007;48.978;18.066;2024-02-21T04:39:46;98169.84;;;4.81;100.00
46768;BME280;69007;48.978;18.066;2024-02-21T04:42:11;98174.41;;;4.80;100.00
46768;BME280;69007;48.978;18.066;2024-02-21T04:44:37;98169.41;;;4.84;100.00
46768;BME280;69007;48.978;18.066;2024-02-21T04:47:03;98159.84;;;4.88;100.00
46768;BME280;69007;48.978;18.066;2024-02-21T04:49:29;98164.38;;;4.94;100.00
46768;BME280;69007;48.978;18.066;2024-02-21T04:51:55;98151.56;;;4.83;100.00
46768;BME280;69007;48.978;18.066;2024-02-21T04:54:20;98145.78;;;4.79;100.00
46768;BME280;69007;48.978;18.066;2024-02-21T04:56:45;98158.81;;;4.89;100.00
46768;BME280;69007;48.978;18.066;2024-02-21T04:59:11;98175.56;;;4.98;100.00
46768;BME280;69007;48.978;18.066;2024-02-21T05:01:36;98183.00;;;5.03;100.00
46768;BME280;69007;48.978;18.066;2024-02-21T05:04:01;98173.84;;;5.10;100.00
46768;BME280;69007;48.978;18.066;2024-02-21T05:06:28;98144.81;;;5.06;100.00
46768;BME280;69007;48.978;18.066;2024-02-21T05:08:53;98135.69;;;5.07;100.00
46768;BME280;69007;48.978;18.066;2024-02-21T05:11:21;98137.28;;;5.14;100.00
46768;BME280;69007;48.978;18.066;2024-02-21T05:13:46;98122.03;;;5.02;100.00
46768;BME280;69007;48.978;18.066;2024-02-21T05:16:11;98153.81;;;5.25;100.00
46768;BME280;69007;48.978;18.066;2024-02-21T05:18:37;98129.81;;;5.16;100.00
46768;BME280;69007;48.978;18.066;2024-02-21T05:21:02;98153.81;;;5.25;100.00
46768;BME280;69007;48.978;18.066;2024-02-21T05:23:28;98147.16;;;5.27;100.00
46768;BME280;69007;48.978;18.066;2024-02-21T05:25:53;98157.72;;;5.29;100.00
46768;BME280;69007;48.978;18.066;2024-02-21T05:28:18;98127.94;;;5.17;100.00
46768;BME280;69007;48.978;18.066;2024-02-21T05:30:44;98137.59;;;5.31;100.00
46768;BME280;69007;48.978;18.066;2024-02-21T05:33:09;98144.41;;;5.34;100.00
46768;BME280;69007;48.978;18.066;2024-02-21T05:35:35;98140.78;;;5.22;100.00
46768;BME280;69007;48.978;18.066;2024-02-21T05:38:01;98134.72;;;5.26;100.00
46768;BME280;69007;48.978;18.066;2024-02-21T05:40:29;98151.63;;;5.40;100.00
46768;BME280;69007;48.978;18.066;2024-02-21T05:42:54;98145.59;;;5.45;100.00
46768;BME280;69007;48.978;18.066;2024-02-21T05:45:20;98153.69;;;5.45;100.00
46768;BME280;69007;48.978;18.066;2024-02-21T05:47:45;98131.13;;;5.32;100.00
46768;BME280;69007;48.978;18.066;2024-02-21T05:50:11;98137.59;;;5.31;100.00
46768;BME280;69007;48.978;18.066;2024-02-21T05:52:36;98147.97;;;5.28;100.00
46768;BME280;69007;48.978;18.066;2024-02-21T05:55:02;98144.28;;;5.22;100.00
46768;BME280;69007;48.978;18.066;2024-02-21T05:57:28;98149.72;;;5.15;100.00
46768;BME280;69007;48.978;18.066;2024-02-21T05:59:53;98114.50;;;4.72;100.00
46768;BME280;69007;48.978;18.066;2024-02-21T06:02:19;98142.94;;;4.68;100.00
46768;BME280;69007;48.978;18.066;2024-02-21T06:04:45;98127.25;;;4.51;100.00
46768;BME280;69007;48.978;18.066;2024-02-21T06:07:11;98154.56;;;4.61;100.00
46768;BME280;69007;48.978;18.066;2024-02-21T06:09:37;98157.69;;;4.58;100.00
46768;BME280;69007;48.978;18.066;2024-02-21T06:12:02;98153.47;;;4.76;100.00
46768;BME280;69007;48.978;18.066;2024-02-21T06:14:28;98140.56;;;4.85;100.00
46768;BME280;69007;48.978;18.066;2024-02-21T06:16:53;98162.44;;;5.08;100.00
46768;BME280;69007;48.978;18.066;2024-02-21T06:19:18;98145.19;;;5.09;100.00
46768;BME280;69007;48.978;18.066;2024-02-21T06:21:44;98155.28;;;5.21;100.00
46768;BME280;69007;48.978;18.066;2024-02-21T06:24:09;98145.94;;;5.23;100.00
46768;BME280;69007;48.978;18.066;2024-02-21T06:26:35;98160.22;;;5.30;100.00
46768;BME280;69007;48.978;18.066;2024-02-21T06:29:00;98143.38;;;5.35;100.00
46768;BME280;69007;48.978;18.066;2024-02-21T06:31:27;98160.16;;;5.37;100.00
46768;BME280;69007;48.978;18.066;2024-02-21T06:33:52;98176.69;;;5.47;100.00
46768;BME280;69007;48.978;18.066;2024-02-21T06:36:18;98149.09;;;5.45;100.00
46768;BME280;69007;48.978;18.066;2024-02-21T06:38:43;98179.75;;;5.58;100.00
46768;BME280;69007;48.978;18.066;2024-02-21T06:41:18;98172.63;;;5.63;100.00
46768;BME280;69007;48.978;18.066;2024-02-21T06:43:47;98159.94;;;5.64;100.00
46768;BME280;69007;48.978;18.066;2024-02-21T06:48:49;98147.22;;;5.46;100.00
46768;BME280;69007;48.978;18.066;2024-02-21T06:51:14;98131.81;;;5.21;100.00
46768;BME280;69007;48.978;18.066;2024-02-21T06:53:40;98158.69;;;5.41;100.00
46768;BME280;69007;48.978;18.066;2024-02-21T06:56:05;98158.66;;;5.48;100.00
46768;BME280;69007;48.978;18.066;2024-02-21T06:58:31;98159.13;;;5.63;100.00
46768;BME280;69007;48.978;18.066;2024-02-21T07:00:56;98145.63;;;5.63;100.00
46768;BME280;69007;48.978;18.066;2024-02-21T07:03:22;98173.34;;;5.77;100.00
46768;BME280;69007;48.978;18.066;2024-02-21T07:05:49;98159.09;;;5.88;100.00
46768;BME280;69007;48.978;18.066;2024-02-21T07:08:14;98168.41;;;5.99;100.00
46768;BME280;69007;48.978;18.066;2024-02-21T07:10:40;98181.19;;;6.11;100.00
46768;BME280;69007;48.978;18.066;2024-02-21T07:13:05;98160.38;;;6.11;100.00
46768;BME280;69007;48.978;18.066;2024-02-21T07:15:31;98186.81;;;6.09;100.00
46768;BME280;69007;48.978;18.066;2024-02-21T07:17:58;98154.47;;;6.21;100.00
46768;BME280;69007;48.978;18.066;2024-02-21T07:20:23;98151.81;;;6.51;100.00
46768;BME280;69007;48.978;18.066;2024-02-21T07:22:48;98138.38;;;6.63;100.00
46768;BME280;69007;48.978;18.066;2024-02-21T07:25:14;98168.75;;;6.95;100.00
46768;BME280;69007;48.978;18.066;2024-02-21T07:27:39;98168.31;;;6.98;100.00
46768;BME280;69007;48.978;18.066;2024-02-21T07:30:06;98168.47;;;6.85;100.00
46768;BME280;69007;48.978;18.066;2024-02-21T07:32:31;98147.16;;;6.77;100.00
46768;BME280;69007;48.978;18.066;2024-02-21T07:34:57;98158.66;;;7.03;100.00
46768;BME280;69007;48.978;18.066;2024-02-21T07:37:22;98154.13;;;7.15;100.00
46768;BME280;69007;48.978;18.066;2024-02-21T07:39:47;98145.81;;;7.28;100.00
46768;BME280;69007;48.978;18.066;2024-02-21T07:42:13;98171.75;;;7.48;100.00
46768;BME280;69007;48.978;18.066;2024-02-21T07:44:38;98156.19;;;7.43;100.00
46768;BME280;69007;48.978;18.066;2024-02-21T07:47:04;98174.59;;;7.53;100.00
46768;BME280;69007;48.978;18.066;2024-02-21T07:49:29;98171.22;;;7.81;100.00
46768;BME280;69007;48.978;18.066;2024-02-21T07:51:54;98153.03;;;8.41;100.00
46768;BME280;69007;48.978;18.066;2024-02-21T07:54:20;98165.31;;;8.55;99.43
46768;BME280;69007;48.978;18.066;2024-02-21T07:56:45;98167.00;;;8.09;100.00
46768;BME280;69007;48.978;18.066;2024-02-21T07:59:10;98153.91;;;7.82;100.00
46768;BME280;69007;48.978;18.066;2024-02-21T08:01:38;98139.28;;;7.83;100.00
46768;BME280;69007;48.978;18.066;2024-02-21T08:04:03;98141.41;;;7.93;100.00
46768;BME280;69007;48.978;18.066;2024-02-21T08:06:29;98147.28;;;8.02;100.00
46768;BME280;69007;48.978;18.066;2024-02-21T08:08:55;98138.69;;;8.05;100.00
46768;BME280;69007;48.978;18.066;2024-02-21T08:11:23;98158.25;;;7.83;100.00
46768;BME280;69007;48.978;18.066;2024-02-21T08:13:49;98159.44;;;7.87;100.00
46768;BME280;69007;48.978;18.066;2024-02-21T08:16:14;98140.44;;;7.64;100.00
46768;BME280;69007;48.978;18.066;2024-02-21T08:18:39;98156.13;;;7.73;100.00
46768;BME280;69007;48.978;18.066;2024-02-21T08:21:05;98151.09;;;7.77;100.00
46768;BME280;69007;48.978;18.066;2024-02-21T08:23:30;98144.22;;;7.74;100.00
46768;BME280;69007;48.978;18.066;2024-02-21T08:25:56;98162.97;;;7.76;100.00
46768;BME280;69007;48.978;18.066;2024-02-21T08:28:21;98133.50;;;7.56;100.00
46768;BME280;69007;48.978;18.066;2024-02-21T08:30:46;98128.66;;;7.58;100.00
46768;BME280;69007;48.978;18.066;2024-02-21T08:33:15;98135.28;;;7.74;100.00
46768;BME280;69007;48.978;18.066;2024-02-21T08:35:42;98142.34;;;7.63;100.00
46768;BME280;69007;48.978;18.066;2024-02-21T08:38:07;98156.56;;;7.59;100.00
46768;BME280;69007;48.978;18.066;2024-02-21T08:40:33;98141.75;;;7.97;100.00
46768;BME280;69007;48.978;18.066;2024-02-21T08:43:00;98142.97;;;8.77;99.39
46768;BME280;69007;48.978;18.066;2024-02-21T08:45:25;98119.75;;;8.98;97.72
46768;BME280;69007;48.978;18.066;2024-02-21T08:47:51;98143.34;;;9.26;96.01
46768;BME280;69007;48.978;18.066;2024-02-21T08:50:16;98122.19;;;9.45;92.83
46768;BME280;69007;48.978;18.066;2024-02-21T08:52:42;98119.69;;;10.50;89.56
46768;BME280;69007;48.978;18.066;2024-02-21T08:55:07;98112.47;;;11.38;88.01
46768;BME280;69007;48.978;18.066;2024-02-21T08:57:33;98121.03;;;12.27;84.30
46768;BME280;69007;48.978;18.066;2024-02-21T09:00:03;98120.22;;;12.21;79.48
46768;BME280;69007;48.978;18.066;2024-02-21T09:02:39;98112.28;;;11.82;82.02
46768;BME280;69007;48.978;18.066;2024-02-21T09:05:05;98103.59;;;11.90;80.22
46768;BME280;69007;48.978;18.066;2024-02-21T09:07:30;98110.31;;;12.10;79.30
46768;BME280;69007;48.978;18.066;2024-02-21T09:09:56;98107.19;;;11.58;78.02
46768;BME280;69007;48.978;18.066;2024-02-21T09:12:21;98127.00;;;11.49;81.51
46768;BME280;69007;48.978;18.066;2024-02-21T09:14:47;98107.91;;;11.81;79.64
46768;BME280;69007;48.978;18.066;2024-02-21T09:17:16;98105.97;;;11.44;78.98
46768;BME280;69007;48.978;18.066;2024-02-21T09:19:42;98107.53;;;10.80;81.14
46768;BME280;69007;48.978;18.066;2024-02-21T09:22:08;98092.16;;;10.25;85.10
46768;BME280;69007;48.978;18.066;2024-02-21T09:24:33;98090.22;;;9.86;84.63
46768;BME280;69007;48.978;18.066;2024-02-21T09:26:59;98106.50;;;9.64;86.54
46768;BME280;69007;48.978;18.066;2024-02-21T09:29:25;98104.19;;;9.39;88.75
46768;BME280;69007;48.978;18.066;2024-02-21T09:31:50;98104.91;;;9.34;88.30
46768;BME280;69007;48.978;18.066;2024-02-21T09:34:16;98083.91;;;9.13;88.09
46768;BME280;69007;48.978;18.066;2024-02-21T09:36:41;98095.09;;;8.99;91.59
46768;BME280;69007;48.978;18.066;2024-02-21T09:39:07;98108.78;;;9.21;89.76
46768;BME280;69007;48.978;18.066;2024-02-21T09:41:36;98096.78;;;9.34;92.42
46768;BME280;69007;48.978;18.066;2024-02-21T09:44:05;98117.66;;;9.85;90.29
46768;BME280;69007;48.978;18.066;2024-02-21T09:47:30;98122.84;;;10.03;88.51
46768;BME280;69007;48.978;18.066;2024-02-21T09:49:35;98120.97;;;9.87;88.01
46768;BME280;69007;48.978;18.066;2024-02-21T09:52:07;98125.78;;;10.19;87.95
46768;BME280;69007;48.978;18.066;2024-02-21T09:54:33;98107.97;;;9.72;87.07
46768;BME280;69007;48.978;18.066;2024-02-21T09:57:03;98116.50;;;9.30;89.90
46768;BME280;69007;48.978;18.066;2024-02-21T09:59:31;98098.59;;;9.46;90.01
46768;BME280;69007;48.978;18.066;2024-02-21T10:01:56;98100.41;;;9.74;88.66
46768;BME280;69007;48.978;18.066;2024-02-21T10:04:23;98105.25;;;9.72;88.33
46768;BME280;69007;48.978;18.066;2024-02-21T10:06:49;98079.25;;;9.59;87.11
46768;BME280;69007;48.978;18.066;2024-02-21T10:09:24;98078.91;;;9.55;88.19
46768;BME280;69007;48.978;18.066;2024-02-21T10:11:52;98098.91;;;9.66;87.89
46768;BME280;69007;48.978;18.066;2024-02-21T10:14:18;98071.84;;;9.37;90.24
46768;BME280;69007;48.978;18.066;2024-02-21T10:16:44;98078.81;;;9.33;90.43
46768;BME280;69007;48.978;18.066;2024-02-21T10:19:19;98087.72;;;9.46;91.26
46768;BME280;69007;48.978;18.066;2024-02-21T10:22:08;98087.84;;;9.22;89.96
46768;BME280;69007;48.978;18.066;2024-02-21T10:24:34;98094.00;;;9.00;91.07
46768;BME280;69007;48.978;18.066;2024-02-21T10:27:04;98090.81;;;9.03;92.22
46768;BME280;69007;48.978;18.066;2024-02-21T10:29:32;98085.34;;;8.87;92.59
46768;BME280;69007;48.978;18.066;2024-02-21T10:32:11;98093.53;;;8.75;93.70
46768;BME280;69007;48.978;18.066;2024-02-21T10:34:38;98086.28;;;8.63;94.72
46768;BME280;69007;48.978;18.066;2024-02-21T10:37:06;98084.13;;;8.65;94.38
46768;BME280;69007;48.978;18.066;2024-02-21T10:39:40;98082.38;;;8.59;95.00
46768;BME280;69007;48.978;18.066;2024-02-21T10:42:06;98080.94;;;8.69;94.28
46768;BME280;69007;48.978;18.066;2024-02-21T10:44:35;98059.63;;;8.60;93.79
46768;BME280;69007;48.978;18.066;2024-02-21T10:47:06;98046.44;;;8.52;93.92
46768;BME280;69007;48.978;18.066;2024-02-21T10:49:38;98059.50;;;8.84;95.40
46768;BME280;69007;48.978;18.066;2024-02-21T10:52:13;98063.72;;;8.92;94.22
46768;BME280;69007;48.978;18.066;2024-02-21T10:54:56;98050.63;;;8.72;92.13
46768;BME280;69007;48.978;18.066;2024-02-21T10:57:24;98036.03;;;9.07;91.94
46768;BME280;69007;48.978;18.066;2024-02-21T10:59:51;98033.16;;;9.30;90.44
46768;BME280;69007;48.978;18.066;2024-02-21T11:02:16;98011.66;;;9.29;88.55
46768;BME280;69007;48.978;18.066;2024-02-21T11:04:43;98030.84;;;9.39;89.20
46768;BME280;69007;48.978;18.066;2024-02-21T11:07:08;98041.63;;;9.17;90.67
46768;BME280;69007;48.978;18.066;2024-02-21T11:09:34;98025.31;;;9.00;90.40
46768;BME280;69007;48.978;18.066;2024-02-21T11:12:04;98014.78;;;9.03;90.20
46768;BME280;69007;48.978;18.066;2024-02-21T11:14:31;98015.38;;;9.39;89.63
46768;BME280;69007;48.978;18.066;2024-02-21T11:17:17;98016.84;;;9.47;86.60
46768;BME280;69007;48.978;18.066;2024-02-21T11:19:43;98030.19;;;9.49;88.97
46768;BME280;69007;48.978;18.066;2024-02-21T11:22:19;98005.63;;;9.44;86.84
46768;BME280;69007;48.978;18.066;2024-02-21T11:24:47;98010.53;;;9.25;87.21
46768;BME280;69007;48.978;18.066;2024-02-21T11:27:15;97997.53;;;9.10;88.86
46768;BME280;69007;48.978;18.066;2024-02-21T11:29:47;98008.38;;;9.10;88.51
46768;BME280;69007;48.978;18.066;2024-02-21T11:32:15;98009.72;;;9.24;90.33
46768;BME280;69007;48.978;18.066;2024-02-21T11:34:41;97985.69;;;9.16;88.82
46768;BME280;69007;48.978;18.066;2024-02-21T11:37:15;97990.94;;;9.06;88.14
46768;BME280;69007;48.978;18.066;2024-02-21T11:39:41;97981.41;;;9.03;89.37
46768;BME280;69007;48.978;18.066;2024-02-21T11:42:08;97996.03;;;9.02;88.77
46768;BME280;69007;48.978;18.066;2024-02-21T11:44:37;97999.16;;;8.94;88.61
46768;BME280;69007;48.978;18.066;2024-02-21T11:47:07;97989.75;;;8.67;89.68
46768;BME280;69007;48.978;18.066;2024-02-21T11:49:43;97993.94;;;8.58;91.96
46768;BME280;69007;48.978;18.066;2024-02-21T11:52:10;97991.06;;;8.65;91.21
46768;BME280;69007;48.978;18.066;2024-02-21T11:54:36;97993.25;;;8.51;92.67
46768;BME280;69007;48.978;18.066;2024-02-21T11:57:01;97993.34;;;8.27;92.08
46768;BME280;69007;48.978;18.066;2024-02-21T11:59:30;97978.13;;;8.26;92.92
46768;BME280;69007;48.978;18.066;2024-02-21T12:02:02;97947.81;;;8.01;93.41
46768;BME280;69007;48.978;18.066;2024-02-21T12:04:31;97972.34;;;8.23;93.78
46768;BME280;69007;48.978;18.066;2024-02-21T12:06:57;97986.75;;;8.23;93.54
46768;BME280;69007;48.978;18.066;2024-02-21T12:09:26;97967.41;;;8.32;98.38
46768;BME280;69007;48.978;18.066;2024-02-21T12:12:02;97962.06;;;8.37;95.56
46768;BME280;69007;48.978;18.066;2024-02-21T12:14:30;97944.72;;;8.38;94.36
46768;BME280;69007;48.978;18.066;2024-02-21T12:16:56;97966.88;;;8.46;97.81
46768;BME280;69007;48.978;18.066;2024-02-21T12:19:22;97969.69;;;8.52;98.21
46768;BME280;69007;48.978;18.066;2024-02-21T12:21:50;97955.13;;;8.58;100.00
46768;BME280;69007;48.978;18.066;2024-02-21T12:24:22;97949.22;;;8.61;100.00
46768;BME280;69007;48.978;18.066;2024-02-21T12:26:48;97930.06;;;8.51;100.00
46768;BME280;69007;48.978;18.066;2024-02-21T12:29:14;97954.94;;;8.47;100.00
46768;BME280;69007;48.978;18.066;2024-02-21T12:31:40;97956.38;;;8.50;100.00
46768;BME280;69007;48.978;18.066;2024-02-21T12:34:06;97957.50;;;8.54;100.00
46768;BME280;69007;48.978;18.066;2024-02-21T12:36:32;97932.53;;;8.52;100.00
46768;BME280;69007;48.978;18.066;2024-02-21T12:38:58;97945.19;;;8.63;100.00
46768;BME280;69007;48.978;18.066;2024-02-21T12:41:24;97938.53;;;8.54;100.00
46768;BME280;69007;48.978;18.066;2024-02-21T12:43:52;97929.44;;;8.32;100.00
46768;BME280;69007;48.978;18.066;2024-02-21T12:46:18;97938.13;;;8.34;100.00
46768;BME280;69007;48.978;18.066;2024-02-21T12:48:43;97941.50;;;8.41;100.00
46768;BME280;69007;48.978;18.066;2024-02-21T12:51:09;97944.47;;;8.39;100.00